Time;durP1;ratioP1;P1;durP2;ratioP2;P2;SDS_P1;SDS_P2;PMS_P1;PMS_P2;Temp;Humidity;BMP_temperature;BMP_pressure;BME280_temperature;BME280_humidity;BME280_pressure;Samples;Min_cycle;Max_cycle;Signal;HPM_P1;HPM_P2
2022/12/24 00:01:17;;;;;;;23.85;3.28;;;;;;;10.82;100.00;100385.09;2616014;36;20034;-61
2022/12/24 00:03:45;;;;;;;25.27;3.20;;;;;;;10.90;100.00;100383.50;2615617;36;20423;-60
2022/12/24 00:06:18;;;;;;;12.70;2.80;;;;;;;10.96;100.00;100383.72;2614158;36;20022;-61
2022/12/24 00:08:47;;;;;;;19.75;3.47;;;;;;;10.90;100.00;100399.66;2615730;36;20065;-61
2022/12/24 00:11:16;;;;;;;22.27;3.65;;;;;;;10.86;100.00;100402.66;2615991;36;20478;-61
2022/12/24 00:13:45;;;;;;;17.08;2.90;;;;;;;10.91;100.00;100396.81;2616896;36;20423;-62
2022/12/24 00:16:16;;;;;;;20.55;3.38;;;;;;;10.84;100.00;100398.41;2615615;36;20034;-62
2022/12/24 00:18:44;;;;;;;25.27;4.38;;;;;;;10.80;100.00;100400.53;2616031;36;20042;-61
2022/12/24 00:21:13;;;;;;;25.95;3.92;;;;;;;10.83;100.00;100402.91;2616799;36;20518;-61
2022/12/24 00:23:42;;;;;;;27.65;3.63;;;;;;;10.94;100.00;100407.28;2615798;36;20026;-61
2022/12/24 00:26:10;;;;;;;25.02;3.63;;;;;;;10.78;100.00;100405.22;2616399;31;20042;-61
2022/12/24 00:28:38;;;;;;;25.38;3.40;;;;;;;10.87;100.00;100417.78;2616085;36;20031;-60
2022/12/24 00:31:11;;;;;;;19.45;3.03;;;;;;;10.80;100.00;100411.28;2616481;36;20023;-60
2022/12/24 00:33:43;;;;;;;17.48;3.00;;;;;;;10.90;100.00;100415.81;2615394;36;20042;-61
2022/12/24 00:36:11;;;;;;;18.70;3.30;;;;;;;10.76;100.00;100414.44;2616402;36;20420;-61
2022/12/24 00:38:40;;;;;;;13.43;3.20;;;;;;;10.77;100.00;100414.28;2615463;36;20038;-60
2022/12/24 00:41:23;;;;;;;21.08;3.67;;;;;;;10.76;100.00;100420.69;2615860;36;20035;-60
2022/12/24 00:43:52;;;;;;;20.58;3.72;;;;;;;10.81;100.00;100423.75;2614965;36;20046;-61
2022/12/24 00:46:20;;;;;;;15.63;3.83;;;;;;;10.86;100.00;100436.78;2616420;36;20419;-60
2022/12/24 00:48:51;;;;;;;15.73;3.70;;;;;;;10.86;100.00;100439.47;2616029;36;20026;-60
2022/12/24 00:51:21;;;;;;;26.20;4.78;;;;;;;10.80;100.00;100443.59;2615769;36;20034;-61
2022/12/24 00:53:50;;;;;;;25.38;3.33;;;;;;;10.80;100.00;100443.59;2615114;36;20038;-60
2022/12/24 00:56:18;;;;;;;23.23;3.45;;;;;;;10.80;100.00;100445.44;2615635;36;20030;-61
2022/12/24 00:58:46;;;;;;;23.17;3.97;;;;;;;10.89;100.00;100451.78;2615678;36;20519;-60
2022/12/24 01:01:15;;;;;;;21.33;4.43;;;;;;;10.90;100.00;100451.66;2616265;31;20049;-60
2022/12/24 01:03:43;;;;;;;26.53;3.67;;;;;;;10.86;100.00;100463.69;2614857;36;20307;-62
2022/12/24 01:06:14;;;;;;;21.43;3.60;;;;;;;10.81;100.00;100469.53;2615383;36;20023;-60
2022/12/24 01:08:42;;;;;;;20.48;3.95;;;;;;;10.81;100.00;100483.00;2616016;36;20288;-62
2022/12/24 01:11:12;;;;;;;17.73;3.75;;;;;;;10.78;100.00;100485.97;2615362;36;20034;-60
2022/12/24 01:13:41;;;;;;;21.02;3.63;;;;;;;10.80;100.00;100483.97;2615458;36;20038;-61
2022/12/24 01:16:16;;;;;;;24.02;3.72;;;;;;;10.75;100.00;100490.78;2615708;36;20535;-60
2022/12/24 01:18:45;;;;;;;21.90;3.25;;;;;;;10.73;100.00;100496.31;2616278;36;20443;-61
2022/12/24 01:21:16;;;;;;;23.70;5.20;;;;;;;10.78;100.00;100504.81;2614844;36;20547;-60
2022/12/24 01:23:45;;;;;;;23.65;3.38;;;;;;;10.78;100.00;100504.00;2616404;36;20042;-61
2022/12/24 01:26:14;;;;;;;21.90;3.78;;;;;;;10.83;100.00;100517.84;2617393;31;20467;-64
2022/12/24 01:28:42;;;;;;;26.58;4.88;;;;;;;10.77;100.00;100519.28;2616356;36;20042;-60
2022/12/24 01:31:15;;;;;;;23.55;3.35;;;;;;;10.81;100.00;100522.53;2615846;36;20034;-61
2022/12/24 01:33:44;;;;;;;18.63;3.00;;;;;;;10.83;100.00;100526.75;2615878;36;20022;-60
2022/12/24 01:36:13;;;;;;;19.42;4.07;;;;;;;10.83;100.00;100529.44;2615146;31;20034;-60
2022/12/24 01:38:44;;;;;;;18.75;3.65;;;;;;;10.69;100.00;100529.94;2616398;36;20038;-60
2022/12/24 01:43:58;;;;;;;28.27;3.67;;;;;;;10.68;100.00;100536.31;2616417;36;20034;-60
2022/12/24 01:46:31;;;;;;;16.87;3.00;;;;;;;10.72;100.00;100542.22;2615677;36;20030;-60
2022/12/24 01:49:03;;;;;;;21.77;3.90;;;;;;;10.74;100.00;100545.66;2615381;36;20048;-59
2022/12/24 01:51:36;;;;;;;23.67;3.38;;;;;;;10.74;100.00;100541.09;2615889;36;20464;-60
2022/12/24 01:54:10;;;;;;;21.27;3.65;;;;;;;10.85;100.00;100548.16;2615524;36;20821;-60
2022/12/24 01:56:45;;;;;;;22.35;3.60;;;;;;;10.76;100.00;100552.59;2616559;36;20555;-59
2022/12/24 01:59:18;;;;;;;24.23;4.30;;;;;;;10.66;100.00;100555.28;2616080;36;20030;-59
2022/12/24 02:01:48;;;;;;;23.90;3.50;;;;;;;10.72;100.00;100559.25;2615272;36;20030;-59
2022/12/24 02:04:25;;;;;;;19.17;3.30;;;;;;;10.69;100.00;100555.00;2613896;36;20355;-59
2022/12/24 02:06:53;;;;;;;18.08;3.75;;;;;;;10.76;100.00;100559.81;2614252;31;20126;-60
2022/12/24 02:09:24;;;;;;;33.00;4.15;;;;;;;10.63;100.00;100563.66;2615622;36;20615;-60
2022/12/24 02:11:53;;;;;;;21.25;3.63;;;;;;;10.66;100.00;100565.22;2615349;36;20034;-62
2022/12/24 02:14:22;;;;;;;20.00;3.30;;;;;;;10.58;100.00;100573.16;2615449;36;20027;-60
2022/12/24 02:17:01;;;;;;;21.90;3.40;;;;;;;10.59;100.00;100581.06;2616450;47;20051;-60
2022/12/24 02:20:16;;;;;;;20.92;3.40;;;;;;;10.54;100.00;100587.88;2615283;36;20162;-60
2022/12/24 02:23:08;;;;;;;25.08;3.75;;;;;;;10.58;100.00;100594.69;2615826;36;20045;-59
2022/12/24 02:26:04;;;;;;;25.75;3.80;;;;;;;10.62;100.00;100602.31;2615559;36;20031;-60
2022/12/24 02:28:57;;;;;;;20.23;3.78;;;;;;;10.42;100.00;100598.78;2615677;36;20034;-59
2022/12/24 02:31:36;;;;;;;31.75;4.38;;;;;;;10.42;100.00;100606.84;2615351;36;20074;-61
2022/12/24 02:34:10;;;;;;;24.23;5.40;;;;;;;10.53;100.00;100605.88;2614854;36;20046;-60
2022/12/24 02:36:46;;;;;;;21.70;4.32;;;;;;;10.46;100.00;100613.66;2613822;36;20035;-59
2022/12/24 02:39:20;;;;;;;21.95;3.58;;;;;;;10.46;100.00;100615.50;2615539;31;20030;-60
2022/12/24 02:44:40;;;;;;;20.83;2.83;;;;;;;10.53;100.00;100627.41;2615473;36;20038;-59
2022/12/24 02:47:13;;;;;;;23.25;3.45;;;;;;;10.51;100.00;100626.69;2615928;36;20034;-60
2022/12/24 02:49:45;;;;;;;19.77;3.20;;;;;;;10.46;100.00;100623.56;2615171;36;20502;-62
2022/12/24 02:52:29;;;;;;;31.10;4.63;;;;;;;10.40;100.00;100630.38;2614374;36;20046;-60
2022/12/24 02:55:00;;;;;;;27.85;3.40;;;;;;;10.35;100.00;100632.63;2615464;36;20034;-61
2022/12/24 02:57:38;;;;;;;24.90;4.93;;;;;;;10.31;100.00;100645.47;2616014;36;20038;-59
2022/12/24 03:00:10;;;;;;;20.38;3.17;;;;;;;10.25;100.00;100647.88;2615351;36;20023;-59
2022/12/24 03:02:54;;;;;;;23.80;3.80;;;;;;;10.22;100.00;100653.50;2615066;36;20027;-60
2022/12/24 03:05:31;;;;;;;18.52;5.13;;;;;;;10.16;100.00;100653.09;2614659;36;20034;-60
2022/12/24 03:08:05;;;;;;;23.17;3.88;;;;;;;9.98;100.00;100661.00;2616188;36;20041;-61
2022/12/24 03:10:39;;;;;;;25.20;3.80;;;;;;;9.94;100.00;100661.41;2615997;36;20035;-60
2022/12/24 03:13:14;;;;;;;32.22;4.75;;;;;;;9.89;100.00;100656.41;2616575;36;20057;-59
2022/12/24 03:15:44;;;;;;;24.08;4.18;;;;;;;9.82;100.00;100657.97;2615551;36;20022;-61
2022/12/24 03:18:18;;;;;;;29.40;4.85;;;;;;;9.82;100.00;100647.22;2614746;36;20412;-61
2022/12/24 03:20:51;;;;;;;31.10;5.05;;;;;;;9.75;100.00;100659.50;2615794;36;20355;-60
2022/12/24 03:23:19;;;;;;;29.80;4.97;;;;;;;9.61;100.00;100658.00;2617307;36;20447;-60
2022/12/24 03:25:48;;;;;;;26.83;4.25;;;;;;;9.52;100.00;100656.97;2615937;36;20042;-58
2022/12/24 03:28:19;;;;;;;22.67;4.00;;;;;;;9.53;100.00;100653.31;2616133;36;20030;-60
2022/12/24 03:30:49;;;;;;;19.30;3.47;;;;;;;9.47;100.00;100660.06;2616729;36;20038;-60
2022/12/24 03:33:21;;;;;;;27.48;4.13;;;;;;;9.54;100.00;100662.22;2614226;31;20055;-60
2022/12/24 03:35:49;;;;;;;20.23;3.95;;;;;;;9.44;100.00;100668.41;2615895;36;20049;-59
2022/12/24 03:38:18;;;;;;;28.60;4.10;;;;;;;9.35;100.00;100671.91;2616241;36;20057;-60
2022/12/24 03:40:46;;;;;;;25.70;3.97;;;;;;;9.27;100.00;100674.38;2615676;36;20557;-59
2022/12/24 03:43:14;;;;;;;32.20;4.10;;;;;;;9.28;100.00;100670.72;2616313;36;20497;-60
2022/12/24 03:45:43;;;;;;;22.20;3.35;;;;;;;9.17;100.00;100673.47;2616066;36;20535;-61
2022/12/24 03:48:11;;;;;;;21.87;4.03;;;;;;;9.16;100.00;100678.00;2615575;36;20037;-61
2022/12/24 03:50:42;;;;;;;19.77;3.70;;;;;;;9.12;100.00;100677.38;2616221;36;20031;-61
2022/12/24 03:53:11;;;;;;;26.27;4.82;;;;;;;9.06;100.00;100677.91;2616409;36;20288;-60
2022/12/24 03:55:40;;;;;;;28.35;4.75;;;;;;;9.02;100.00;100675.63;2615377;36;20035;-61
2022/12/24 03:58:08;;;;;;;28.23;5.28;;;;;;;8.97;100.00;100684.09;2614949;36;20030;-60
2022/12/24 04:00:37;;;;;;;36.65;5.88;;;;;;;8.98;100.00;100676.88;2616303;36;20045;-60
2022/12/24 04:03:05;;;;;;;27.00;4.50;;;;;;;8.95;100.00;100680.66;2616593;36;20517;-61
2022/12/24 04:05:33;;;;;;;31.73;3.90;;;;;;;8.99;100.00;100684.78;2615387;36;20038;-60
2022/12/24 04:08:04;;;;;;;22.33;4.47;;;;;;;9.03;100.00;100678.19;2616053;36;20034;-61
2022/12/24 04:10:33;;;;;;;19.75;3.55;;;;;;;8.99;100.00;100674.06;2615498;36;20030;-61
2022/12/24 04:13:01;;;;;;;19.67;3.67;;;;;;;9.01;100.00;100690.91;2616931;36;20451;-61
2022/12/24 04:15:29;;;;;;;27.70;3.67;;;;;;;8.93;100.00;100688.00;2615908;36;20046;-61
2022/12/24 04:17:58;;;;;;;26.23;4.30;;;;;;;9.08;100.00;100696.59;2614951;36;20057;-60
2022/12/24 04:20:26;;;;;;;25.45;3.95;;;;;;;9.09;100.00;100693.75;2614593;36;20023;-61
2022/12/24 04:22:54;;;;;;;18.90;3.45;;;;;;;9.08;100.00;100697.47;2614750;36;20042;-61
2022/12/24 04:25:25;;;;;;;23.23;3.73;;;;;;;9.16;100.00;100709.34;2615066;36;20029;-60
2022/12/24 04:27:54;;;;;;;26.05;4.30;;;;;;;9.17;100.00;100703.00;2616095;36;20041;-59
2022/12/24 04:30:22;;;;;;;32.97;5.82;;;;;;;9.20;100.00;100711.66;2615819;31;20045;-61
2022/12/24 04:32:50;;;;;;;18.35;3.50;;;;;;;9.25;100.00;100708.59;2616587;36;20457;-62
2022/12/24 04:35:19;;;;;;;28.27;4.47;;;;;;;9.27;100.00;100714.66;2615376;36;20035;-60
2022/12/24 04:37:47;;;;;;;19.83;3.10;;;;;;;9.38;100.00;100719.97;2616220;36;20470;-60
2022/12/24 04:40:16;;;;;;;25.17;4.13;;;;;;;9.49;100.00;100723.56;2615980;31;20435;-61
2022/12/24 04:42:47;;;;;;;30.30;3.58;;;;;;;9.50;100.00;100722.59;2616517;36;20023;-62
2022/12/24 04:45:15;;;;;;;24.65;3.95;;;;;;;9.57;100.00;100713.00;2616009;36;20038;-61
2022/12/24 04:47:43;;;;;;;30.58;4.18;;;;;;;9.62;100.00;100721.53;2615223;36;20042;-61
2022/12/24 04:50:12;;;;;;;27.20;4.30;;;;;;;9.58;100.00;100720.09;2615232;36;20034;-67
2022/12/24 04:52:41;;;;;;;21.83;4.03;;;;;;;9.64;100.00;100717.72;2616096;36;20045;-61
2022/12/24 04:55:10;;;;;;;21.83;4.25;;;;;;;9.64;100.00;100720.41;2616087;36;20031;-62
2022/12/24 04:57:39;;;;;;;25.20;3.60;;;;;;;9.55;100.00;100720.34;2615720;36;20022;-59
2022/12/24 05:00:11;;;;;;;24.27;4.00;;;;;;;9.77;100.00;100717.47;2616037;36;20076;-62
2022/12/24 05:02:39;;;;;;;23.25;4.45;;;;;;;9.68;100.00;100718.28;2615984;36;20037;-62
2022/12/24 05:05:09;;;;;;;24.20;5.60;;;;;;;9.67;100.00;100713.91;2614992;36;20627;-61
2022/12/24 05:07:37;;;;;;;25.30;4.53;;;;;;;9.81;100.00;100718.91;2616435;36;20435;-61
2022/12/24 05:10:06;;;;;;;23.58;3.60;;;;;;;9.77;100.00;100720.16;2615455;36;20046;-60
2022/12/24 05:12:34;;;;;;;30.65;3.97;;;;;;;9.68;100.00;100726.34;2615764;36;20034;-61
2022/12/24 05:15:03;;;;;;;33.50;4.43;;;;;;;9.77;100.00;100722.84;2615623;36;20038;-60
2022/12/24 05:17:34;;;;;;;28.33;4.05;;;;;;;9.79;100.00;100720.91;2615982;36;20026;-61
2022/12/24 05:20:02;;;;;;;22.92;4.28;;;;;;;9.90;100.00;100721.78;2614441;36;20039;-62
2022/12/24 05:27:53;;;;;;;32.33;4.57;;;;;;;9.87;100.00;100732.81;2615642;36;20042;-62
2022/12/24 05:30:22;;;;;;;32.33;4.47;;;;;;;9.92;100.00;100731.44;2615732;36;20570;-62
2022/12/24 05:32:53;;;;;;;28.60;6.13;;;;;;;9.92;100.00;100735.94;2616105;36;20064;-62
2022/12/24 05:35:21;;;;;;;36.30;4.93;;;;;;;9.92;100.00;100733.25;2615889;36;20116;-62
2022/12/24 05:37:49;;;;;;;35.40;4.97;;;;;;;9.98;100.00;100740.78;2616278;36;20030;-63
2022/12/24 05:40:18;;;;;;;28.10;4.85;;;;;;;9.99;100.00;100737.94;2615078;31;20034;-62
2022/12/24 05:42:46;;;;;;;28.77;3.60;;;;;;;10.05;100.00;100733.03;2615764;31;20041;-63
2022/12/24 05:45:15;;;;;;;45.55;6.13;;;;;;;10.01;100.00;100737.81;2616266;36;20038;-62
2022/12/24 05:47:43;;;;;;;27.17;4.53;;;;;;;10.00;100.00;100744.19;2615162;36;20030;-63
2022/12/24 05:50:14;;;;;;;29.75;5.15;;;;;;;10.17;100.00;100743.56;2615655;36;20428;-61
2022/12/24 05:52:43;;;;;;;31.45;4.97;;;;;;;10.15;100.00;100750.91;2616710;36;20419;-61
2022/12/24 05:55:11;;;;;;;25.52;4.80;;;;;;;10.14;100.00;100743.84;2615431;36;20041;-59
2022/12/24 05:57:41;;;;;;;31.25;4.20;;;;;;;10.11;100.00;100749.47;2615592;36;20041;-59
2022/12/24 06:00:11;;;;;;;31.83;4.88;;;;;;;10.18;100.00;100753.31;2614836;36;20061;-61
2022/12/24 06:02:39;;;;;;;27.33;4.57;;;;;;;10.23;100.00;100752.06;2615415;36;20039;-61
2022/12/24 06:05:08;;;;;;;32.67;4.78;;;;;;;10.14;100.00;100749.22;2615341;36;20022;-62
2022/12/24 06:07:39;;;;;;;33.25;4.47;;;;;;;10.08;100.00;100749.72;2615242;36;20030;-62
2022/12/24 06:10:09;;;;;;;27.98;4.78;;;;;;;10.16;100.00;100766.06;2615310;36;20023;-61
2022/12/24 06:12:38;;;;;;;32.17;4.68;;;;;;;10.20;100.00;100761.25;2615247;36;20034;-62
2022/12/24 06:15:08;;;;;;;26.77;4.33;;;;;;;10.22;100.00;100767.34;2615734;36;20447;-61
2022/12/24 06:17:36;;;;;;;35.63;3.72;;;;;;;10.08;100.00;100768.56;2614294;36;20058;-61
2022/12/24 06:20:05;;;;;;;26.53;4.43;;;;;;;10.13;100.00;100774.41;2615792;31;20026;-60
2022/12/24 06:22:33;;;;;;;25.38;4.55;;;;;;;10.12;100.00;100770.00;2616133;36;20034;-62
2022/12/24 06:25:05;;;;;;;31.20;4.43;;;;;;;10.08;100.00;100782.00;2615702;36;20030;-62
2022/12/24 06:27:33;;;;;;;29.73;3.97;;;;;;;10.16;100.00;100774.13;2615387;36;20042;-61
2022/12/24 06:30:01;;;;;;;33.65;4.95;;;;;;;10.12;100.00;100785.28;2615754;36;20527;-60
2022/12/24 06:32:30;;;;;;;24.45;4.55;;;;;;;10.11;100.00;100787.09;2614253;36;20062;-61
2022/12/24 06:34:58;;;;;;;21.48;4.53;;;;;;;10.13;100.00;100784.31;2615357;36;20034;-62
2022/12/24 06:37:26;;;;;;;25.75;4.22;;;;;;;10.20;100.00;100785.44;2615540;36;20046;-63
2022/12/24 06:39:55;;;;;;;17.38;4.22;;;;;;;10.21;100.00;100786.31;2615823;36;20035;-61
2022/12/24 06:42:26;;;;;;;21.50;4.38;;;;;;;10.15;100.00;100793.09;2616221;31;20046;-61
2022/12/24 06:44:54;;;;;;;29.92;4.38;;;;;;;10.16;100.00;100792.94;2616049;36;20454;-60
2022/12/24 06:47:23;;;;;;;30.15;4.15;;;;;;;10.20;100.00;100784.59;2614412;36;20030;-63
2022/12/24 06:49:51;;;;;;;28.92;4.65;;;;;;;10.24;100.00;100786.03;2615917;31;20436;-61
2022/12/24 06:52:19;;;;;;;26.50;4.43;;;;;;;10.28;100.00;100798.25;2616085;31;20042;-62
2022/12/24 06:54:48;;;;;;;35.75;5.05;;;;;;;10.20;100.00;100801.59;2615839;36;20038;-60
2022/12/24 06:57:16;;;;;;;35.77;5.90;;;;;;;10.18;100.00;100800.88;2615019;36;20060;-63
2022/12/24 06:59:47;;;;;;;27.35;5.50;;;;;;;10.27;100.00;100807.28;2615954;36;20295;-61
2022/12/24 07:02:15;;;;;;;32.35;4.35;;;;;;;10.23;100.00;100806.72;2614465;36;20034;-62
2022/12/24 07:04:44;;;;;;;29.30;4.78;;;;;;;10.31;100.00;100803.34;2615296;36;20446;-61
2022/12/24 07:07:12;;;;;;;24.17;5.20;;;;;;;10.43;100.00;100809.50;2615250;36;20689;-62
2022/12/24 07:09:40;;;;;;;27.45;4.25;;;;;;;10.33;100.00;100812.13;2615480;36;20045;-61
2022/12/24 07:12:09;;;;;;;33.70;4.40;;;;;;;10.34;100.00;100821.94;2615078;36;20026;-61
2022/12/24 07:14:37;;;;;;;32.03;4.93;;;;;;;10.29;100.00;100821.44;2615922;36;20038;-61
2022/12/24 07:17:08;;;;;;;30.45;4.88;;;;;;;10.34;100.00;100819.25;2614670;36;20549;-62
2022/12/24 07:19:36;;;;;;;24.10;4.35;;;;;;;10.43;100.00;100828.34;2615556;36;20038;-61
2022/12/24 07:22:05;;;;;;;23.65;3.97;;;;;;;10.51;100.00;100832.06;2615218;31;20543;-61
2022/12/24 07:24:33;;;;;;;28.55;4.28;;;;;;;10.40;100.00;100834.00;2615498;36;20041;-62
2022/12/24 07:27:01;;;;;;;31.35;4.45;;;;;;;10.51;100.00;100840.13;2615492;36;20042;-62
2022/12/24 07:29:30;;;;;;;36.95;5.40;;;;;;;10.57;100.00;100843.25;2615286;36;20026;-61
2022/12/24 07:31:58;;;;;;;44.10;5.13;;;;;;;10.58;100.00;100837.72;2615257;36;20086;-62
2022/12/24 07:34:29;;;;;;;26.63;4.22;;;;;;;10.50;100.00;100843.81;2615310;36;20034;-61
2022/12/24 07:36:57;;;;;;;31.05;4.72;;;;;;;10.58;100.00;100844.97;2615285;36;20551;-62
2022/12/24 07:39:26;;;;;;;33.15;4.50;;;;;;;10.46;100.00;100838.84;2614815;36;20039;-61
2022/12/24 07:41:54;;;;;;;25.47;4.60;;;;;;;10.62;100.00;100838.31;2615521;36;20065;-60
2022/12/24 07:44:22;;;;;;;40.38;5.50;;;;;;;10.66;100.00;100850.53;2615548;36;20042;-60
2022/12/24 07:46:51;;;;;;;27.27;4.67;;;;;;;10.72;100.00;100852.66;2614425;36;20031;-61
2022/12/24 07:49:19;;;;;;;27.55;5.55;;;;;;;10.47;100.00;100857.53;2615237;36;20030;-62
2022/12/24 07:51:50;;;;;;;33.40;5.05;;;;;;;10.50;100.00;100859.94;2613156;36;20039;-61
2022/12/24 07:54:19;;;;;;;31.25;4.35;;;;;;;10.46;100.00;100877.34;2615356;36;20031;-60
2022/12/24 07:56:47;;;;;;;38.63;4.80;;;;;;;10.49;100.00;100877.06;2615349;36;20045;-63
2022/12/24 07:59:15;;;;;;;37.17;5.10;;;;;;;10.43;100.00;100883.00;2615811;36;20058;-61
2022/12/24 08:01:44;;;;;;;30.98;4.63;;;;;;;10.41;100.00;100890.38;2616606;36;20519;-61
2022/12/24 08:04:12;;;;;;;31.95;5.13;;;;;;;10.44;100.00;100900.84;2615201;36;20023;-61
2022/12/24 08:06:41;;;;;;;25.42;4.80;;;;;;;10.47;100.00;100907.81;2616478;36;20613;-61
2022/12/24 08:09:14;;;;;;;41.77;5.40;;;;;;;10.44;100.00;100911.63;2616007;36;20037;-61
2022/12/24 08:11:42;;;;;;;24.35;4.45;;;;;;;10.47;100.00;100911.34;2616454;36;20918;-61
2022/12/24 08:14:10;;;;;;;34.10;6.07;;;;;;;10.53;100.00;100915.34;2616040;36;20030;-61
2022/12/24 08:16:39;;;;;;;22.05;4.13;;;;;;;10.43;100.00;100917.13;2615086;36;20605;-63
2022/12/24 08:19:07;;;;;;;29.95;5.65;;;;;;;10.49;100.00;100922.81;2615748;36;20039;-61
2022/12/24 08:21:35;;;;;;;32.88;4.30;;;;;;;10.48;100.00;100931.91;2616736;31;20041;-61
2022/12/24 08:24:03;;;;;;;36.17;5.20;;;;;;;10.56;100.00;100933.06;2616907;31;20429;-61
2022/12/24 08:26:34;;;;;;;28.77;4.55;;;;;;;10.43;100.00;100934.13;2616434;36;20035;-61
2022/12/24 08:29:03;;;;;;;32.83;5.68;;;;;;;10.40;100.00;100937.09;2616383;36;20034;-62
2022/12/24 08:31:35;;;;;;;24.17;5.25;;;;;;;10.41;100.00;100933.41;2615576;36;20034;-61
2022/12/24 08:34:03;;;;;;;41.25;4.70;;;;;;;10.45;100.00;100944.75;2615998;36;20061;-60
2022/12/24 08:36:31;;;;;;;39.10;5.40;;;;;;;10.56;100.00;100946.53;2615977;36;20030;-60
2022/12/24 08:39:02;;;;;;;32.10;5.40;;;;;;;10.48;100.00;100955.25;2616348;36;20022;-61
2022/12/24 08:41:30;;;;;;;43.33;6.63;;;;;;;10.39;100.00;100947.97;2615907;36;20039;-63
2022/12/24 08:44:01;;;;;;;39.93;6.50;;;;;;;10.40;100.00;100955.06;2616233;36;20545;-61
2022/12/24 08:46:29;;;;;;;36.83;5.93;;;;;;;10.47;100.00;100953.56;2615676;36;20027;-61
2022/12/24 08:48:58;;;;;;;41.88;6.85;;;;;;;10.57;100.00;100953.59;2616417;31;20045;-61
2022/12/24 08:51:26;;;;;;;25.83;5.13;;;;;;;10.56;100.00;100962.69;2615813;36;20027;-61
2022/12/24 08:53:54;;;;;;;32.88;6.18;;;;;;;10.56;100.00;100973.44;2616277;36;20670;-61
2022/12/24 08:56:23;;;;;;;35.08;5.35;;;;;;;10.41;100.00;100971.09;2616736;31;20030;-61
2022/12/24 08:58:51;;;;;;;34.53;5.63;;;;;;;10.58;100.00;100977.69;2616340;36;20034;-60
2022/12/24 09:01:23;;;;;;;32.13;5.38;;;;;;;10.62;100.00;100973.75;2615660;36;20038;-59
2022/12/24 09:03:51;;;;;;;37.00;5.97;;;;;;;10.56;100.00;100985.06;2614881;36;20022;-59
2022/12/24 09:06:20;;;;;;;26.83;5.03;;;;;;;10.63;100.00;100985.34;2616170;36;20069;-61
2022/12/24 09:08:49;;;;;;;41.78;5.60;;;;;;;10.65;100.00;100988.78;2616189;36;20039;-63
2022/12/24 09:11:19;;;;;;;39.65;5.30;;;;;;;10.63;100.00;101009.56;2615625;36;20038;-61
2022/12/24 09:13:48;;;;;;;34.15;4.80;;;;;;;10.65;100.00;100999.56;2616151;36;20057;-61
2022/12/24 09:16:17;;;;;;;35.53;4.55;;;;;;;10.63;100.00;101012.28;2615788;36;20618;-63
2022/12/24 09:18:48;;;;;;;34.35;5.40;;;;;;;10.54;100.00;101013.06;2615657;36;20508;-60
2022/12/24 09:21:18;;;;;;;30.63;4.55;;;;;;;10.52;100.00;101016.75;2615696;36;20646;-63
2022/12/24 09:23:48;;;;;;;31.40;5.18;;;;;;;10.47;100.00;101016.28;2616086;31;20022;-59
2022/12/24 09:26:19;;;;;;;27.25;3.85;;;;;;;10.64;100.00;101024.75;2616291;36;20038;-60
2022/12/24 09:28:47;;;;;;;25.90;5.18;;;;;;;10.68;100.00;101026.19;2616040;31;20552;-61
2022/12/24 09:31:16;;;;;;;33.08;4.10;;;;;;;10.72;100.00;101027.66;2615821;31;20027;-59
2022/12/24 09:33:49;;;;;;;31.38;4.07;;;;;;;10.67;100.00;101038.81;2615296;36;20046;-60
2022/12/24 09:36:18;;;;;;;37.67;5.88;;;;;;;10.62;100.00;101042.88;2616080;31;20030;-60
2022/12/24 09:38:47;;;;;;;29.55;5.03;;;;;;;10.64;100.00;101041.75;2616001;36;20528;-59
2022/12/24 09:41:22;;;;;;;31.02;4.75;;;;;;;10.66;100.00;101044.34;2614974;36;20053;-61
2022/12/24 09:43:54;;;;;;;39.15;5.55;;;;;;;10.61;100.00;101041.16;2616156;31;20268;-61
2022/12/24 09:46:28;;;;;;;23.25;4.70;;;;;;;10.68;100.00;101039.66;2615822;36;20845;-60
2022/12/24 09:49:04;;;;;;;45.85;6.28;;;;;;;10.62;100.00;101042.88;2615345;36;20042;-60
2022/12/24 09:51:38;;;;;;;26.45;5.00;;;;;;;10.64;100.00;101043.59;2615684;36;20034;-60
2022/12/24 09:54:14;;;;;;;32.50;4.35;;;;;;;10.73;100.00;101052.72;2616153;36;20463;-59
2022/12/24 09:56:46;;;;;;;32.90;4.07;;;;;;;10.75;100.00;101048.91;2616060;36;20023;-60
2022/12/24 09:59:19;;;;;;;37.30;4.90;;;;;;;10.84;100.00;101045.41;2616153;36;20428;-59
2022/12/24 10:01:48;;;;;;;25.23;5.57;;;;;;;10.87;100.00;101047.84;2615660;36;20030;-60
2022/12/24 10:04:22;;;;;;;24.77;4.85;;;;;;;10.94;100.00;101052.69;2615605;36;20034;-61
2022/12/24 10:06:57;;;;;;;36.17;4.97;;;;;;;11.11;100.00;101060.16;2616307;36;20034;-60
2022/12/24 10:09:38;;;;;;;30.98;4.55;;;;;;;11.22;100.00;101057.38;2615468;31;20038;-58
2022/12/24 10:12:15;;;;;;;29.00;4.05;;;;;;;11.29;100.00;101057.69;2615898;36;20041;-61
2022/12/24 10:15:01;;;;;;;28.02;4.32;;;;;;;11.26;100.00;101057.09;2615471;36;20038;-59
2022/12/24 10:17:42;;;;;;;28.50;4.78;;;;;;;11.09;100.00;101059.44;2615120;36;20031;-60
2022/12/24 10:20:35;;;;;;;32.92;5.35;;;;;;;11.20;100.00;101064.75;2615556;31;20022;-60
2022/12/24 10:23:09;;;;;;;27.70;7.10;;;;;;;11.18;100.00;101061.31;2616216;36;20034;-60
2022/12/24 10:25:43;;;;;;;26.58;4.13;;;;;;;11.17;100.00;101059.63;2616006;36;20049;-59
2022/12/24 10:28:16;;;;;;;29.60;4.25;;;;;;;11.10;100.00;101065.66;2615856;36;20062;-60
2022/12/24 10:30:49;;;;;;;24.50;4.18;;;;;;;11.15;100.00;101053.50;2615473;36;20451;-59
2022/12/24 10:33:21;;;;;;;27.77;5.57;;;;;;;11.09;100.00;101064.81;2614423;36;20027;-61
2022/12/24 10:35:57;;;;;;;28.02;5.07;;;;;;;11.18;100.00;101055.09;2616115;36;20058;-60
2022/12/24 10:38:26;;;;;;;24.52;4.00;;;;;;;11.28;100.00;101071.28;2616170;31;20038;-60
2022/12/24 10:40:56;;;;;;;27.10;4.28;;;;;;;11.37;100.00;101059.69;2614901;36;20038;-60
2022/12/24 10:43:26;;;;;;;27.45;4.15;;;;;;;11.40;100.00;101064.81;2616002;36;20034;-59
2022/12/24 10:45:58;;;;;;;22.08;4.07;;;;;;;11.53;100.00;101069.97;2615905;36;20035;-61
2022/12/24 10:48:30;;;;;;;22.10;3.70;;;;;;;11.49;100.00;101068.53;2614451;36;20041;-59
2022/12/24 10:51:06;;;;;;;24.90;4.95;;;;;;;11.57;100.00;101077.63;2615604;36;20033;-61
2022/12/24 10:53:41;;;;;;;27.48;5.55;;;;;;;11.68;100.00;101073.13;2616404;36;20443;-59
2022/12/24 10:56:12;;;;;;;23.70;4.15;;;;;;;11.81;100.00;101081.81;2615348;36;20035;-60
2022/12/24 10:58:46;;;;;;;27.15;4.07;;;;;;;11.74;100.00;101069.88;2615704;36;20034;-60
2022/12/24 11:01:15;;;;;;;25.60;4.18;;;;;;;11.54;100.00;101072.53;2616045;36;20035;-61
2022/12/24 11:03:43;;;;;;;27.98;4.45;;;;;;;11.66;100.00;101075.09;2614498;36;20035;-60
2022/12/24 11:06:19;;;;;;;25.63;3.87;;;;;;;11.59;100.00;101085.59;2615344;36;20062;-61
2022/12/24 11:08:48;;;;;;;19.85;3.75;;;;;;;11.58;100.00;101078.47;2615097;36;20035;-62
2022/12/24 11:11:19;;;;;;;19.70;3.40;;;;;;;11.74;100.00;101075.25;2613787;36;20041;-59
2022/12/24 11:13:55;;;;;;;23.20;3.75;;;;;;;11.66;100.00;101096.66;2615034;36;20563;-60
2022/12/24 11:16:28;;;;;;;19.23;3.75;;;;;;;11.42;100.00;101083.53;2615141;36;20034;-62
2022/12/24 11:18:58;;;;;;;21.67;3.42;;;;;;;11.40;100.00;101089.06;2614758;36;20110;-61
2022/12/24 11:21:39;;;;;;;19.85;3.78;;;;;;;11.44;100.00;101093.19;2616197;36;20034;-60
2022/12/24 11:24:23;;;;;;;25.05;4.57;;;;;;;11.51;100.00;101094.38;2613965;36;20057;-62
2022/12/24 11:26:51;;;;;;;28.60;4.15;;;;;;;11.49;100.00;101093.63;2615091;36;20134;-62
2022/12/24 11:29:23;;;;;;;26.80;4.95;;;;;;;11.60;100.00;101092.69;2616560;36;20042;-61
2022/12/24 11:31:54;;;;;;;23.88;4.57;;;;;;;11.35;100.00;101096.69;2615823;36;20581;-62
2022/12/24 11:34:29;;;;;;;19.00;3.65;;;;;;;11.31;100.00;101097.97;2615434;36;20098;-61
2022/12/24 11:37:16;;;;;;;20.73;3.30;;;;;;;11.42;100.00;101094.31;2616160;36;20574;-62
2022/12/24 11:39:48;;;;;;;22.67;3.95;;;;;;;11.55;100.00;101098.47;2616114;36;20040;-61